weather.gov     
National Weather Service

Terminal Aerodrome Forecast
NWS Homepage
This page is being discontinued on March 12, 2014.
The same data is available at this site. Please update your bookmarks.
Thank you, and we apologize for the inconvenience.
Please send an email to SR-SRH.Webmaster@noaa.gov with any concerns.


Current Version
Previous Version:    01  02  03  04  05  06  07  08  09  10  11  12  13  14  15  16  17  18  19  20  21  22  23  24  25  26  27  28  29  30  
   31  32  33  34  35  36  37  38  39  40  41  
[Printable]
899
FTUS44 KAMA 160000 CCA
TAFAMA
TAF COR
KAMA 160006Z 1600/1624 01011KT P6SM SCT015 OVC045
      TEMPO 1600/1604 OVC015
     FM160400 04006KT P6SM SCT005 OVC015
     FM160600 VRB05KT P6SM OVC006
      TEMPO 1606/1610 2SM BR OVC001
     FM161000 VRB05KT 2SM BR OVC002
     FM161600 18008KT P6SM SCT005 OVC015
     FM162000 18014KT P6SM SCT015 BKN060=


U.S. Dept. of Commerce
NOAA National Weather Service
1325 East West Highway
Silver Spring, MD 20910
E-mail: w-nws.webmaster@noaa.gov
Page last modified: May 16, 2007
NATIONAL WEATHER SERVICE: for Safety, for Work, for Fun - FOR LIFE